Time;durP1;ratioP1;P1;durP2;ratioP2;P2;SDS_P1;SDS_P2;PMS_P1;PMS_P2;Temp;Humidity;BMP_temperature;BMP_pressure;BME280_temperature;BME280_humidity;BME280_pressure;Samples;Min_cycle;Max_cycle;Signal;HPM_P1;HPM_P2
2022/06/26 00:00:05;;;;;;;172.77;159.40;;;20.70;92.90;;;;;;5053386;28;20053;-79
2022/06/26 00:02:35;;;;;;;188.73;174.63;;;20.70;92.90;;;;;;5055740;28;20585;-79
2022/06/26 00:05:02;;;;;;;177.70;163.80;;;20.60;92.80;;;;;;5055836;28;20576;-79
2022/06/26 00:07:29;;;;;;;170.63;157.52;;;20.60;92.80;;;;;;5055009;28;20128;-79
2022/06/26 00:09:56;;;;;;;176.75;162.90;;;20.60;92.80;;;;;;5038913;28;20110;-79
2022/06/26 00:12:25;;;;;;;170.60;157.13;;;20.60;92.80;;;;;;5039023;28;20099;-79
2022/06/26 00:14:51;;;;;;;169.30;155.82;;;20.50;92.80;;;;;;5055374;28;20131;-79
2022/06/26 00:17:19;;;;;;;171.68;158.57;;;20.50;92.80;;;;;;5038586;28;20071;-79
2022/06/26 00:19:45;;;;;;;180.20;166.85;;;20.50;92.90;;;;;;5038715;28;20043;-79
2022/06/26 00:22:12;;;;;;;173.75;159.95;;;20.50;92.90;;;;;;5073331;28;20060;-79
2022/06/26 00:24:41;;;;;;;170.90;157.63;;;20.50;92.80;;;;;;5073695;28;20052;-80
2022/06/26 00:27:08;;;;;;;179.93;166.02;;;20.40;92.80;;;;;;5038252;28;20137;-79
2022/06/26 00:29:37;;;;;;;173.80;160.10;;;20.40;92.90;;;;;;5038372;28;20075;-79
2022/06/26 00:32:05;;;;;;;176.52;162.70;;;20.40;93.00;;;;;;5038868;28;20554;-79
2022/06/26 00:34:33;;;;;;;175.10;161.50;;;20.30;92.90;;;;;;5041496;28;20080;-78
2022/06/26 00:37:00;;;;;;;182.80;169.00;;;20.30;93.00;;;;;;5035084;28;20046;-79
2022/06/26 00:39:27;;;;;;;175.82;162.13;;;20.30;93.10;;;;;;5018890;28;20045;-79
2022/06/26 00:41:54;;;;;;;179.13;165.20;;;20.30;93.30;;;;;;5034815;28;20049;-79
2022/06/26 00:44:22;;;;;;;201.20;185.88;;;20.30;93.40;;;;;;5035692;28;20080;-78
2022/06/26 00:46:52;;;;;;;174.05;160.38;;;20.20;93.50;;;;;;5035169;28;20112;-79
2022/06/26 00:49:19;;;;;;;176.32;162.48;;;20.20;93.70;;;;;;5035144;28;20599;-79
2022/06/26 00:51:49;;;;;;;177.55;163.60;;;20.20;93.80;;;;;;5018875;28;20516;-79
2022/06/26 00:54:16;;;;;;;180.85;166.82;;;20.20;94.10;;;;;;5018532;28;20515;-79
2022/06/26 00:56:43;;;;;;;182.07;167.57;;;20.20;94.40;;;;;;5034962;28;20081;-79
2022/06/26 00:59:11;;;;;;;202.50;186.40;;;20.20;95.70;;;;;;5034471;28;20049;-78
2022/06/26 01:01:38;;;;;;;199.30;183.60;;;20.10;95.90;;;;;;5034756;28;20499;-79
2022/06/26 01:04:07;;;;;;;186.68;171.43;;;20.10;96.30;;;;;;5018513;28;20045;-78
2022/06/26 01:06:34;;;;;;;185.70;170.70;;;19.90;96.20;;;;;;5017769;28;20104;-78
2022/06/26 01:09:03;;;;;;;182.35;167.60;;;19.80;96.30;;;;;;5034553;28;20050;-78
2022/06/26 01:11:30;;;;;;;179.70;165.35;;;19.80;96.90;;;;;;5018238;28;20059;-79
2022/06/26 01:13:58;;;;;;;186.82;171.52;;;19.80;97.10;;;;;;5018111;28;20057;-78
2022/06/26 01:16:26;;;;;;;182.60;167.80;;;19.80;97.10;;;;;;5018168;28;20494;-78
2022/06/26 01:18:55;;;;;;;179.20;164.55;;;19.70;97.10;;;;;;5020057;28;20049;-78
2022/06/26 01:21:25;;;;;;;176.63;162.20;;;19.70;97.20;;;;;;5021601;28;20053;-78
2022/06/26 01:23:54;;;;;;;182.13;167.45;;;19.70;97.30;;;;;;5056223;28;20058;-78
2022/06/26 01:26:24;;;;;;;179.30;164.85;;;19.70;97.40;;;;;;5021674;28;20439;-78
2022/06/26 01:28:51;;;;;;;179.73;165.48;;;19.70;97.40;;;;;;5021391;28;20101;-78
2022/06/26 01:31:19;;;;;;;174.15;160.38;;;19.70;97.40;;;;;;5038103;28;20052;-79
2022/06/26 01:33:47;;;;;;;182.68;168.07;;;19.70;97.40;;;;;;5055995;28;20046;-78
2022/06/26 01:36:14;;;;;;;182.85;168.15;;;19.70;97.40;;;;;;5038203;28;20053;-78
2022/06/26 01:38:42;;;;;;;184.85;170.25;;;19.70;97.30;;;;;;5037919;28;20061;-78
2022/06/26 01:41:11;;;;;;;181.25;166.73;;;19.70;97.40;;;;;;5045822;28;20163;-78
2022/06/26 01:43:39;;;;;;;181.98;167.65;;;19.70;97.40;;;;;;5058029;28;20555;-78
2022/06/26 01:46:07;;;;;;;179.02;164.88;;;19.70;97.40;;;;;;5041060;28;20077;-78
2022/06/26 01:48:38;;;;;;;176.63;162.18;;;19.70;97.30;;;;;;5057792;28;20049;-78
2022/06/26 01:51:08;;;;;;;178.90;164.43;;;19.70;97.30;;;;;;5040266;28;20080;-78
2022/06/26 01:53:40;;;;;;;175.73;161.55;;;19.70;97.30;;;;;;5057811;28;20127;-78
2022/06/26 01:56:07;;;;;;;177.60;163.35;;;19.70;97.30;;;;;;5057797;28;20069;-79
2022/06/26 01:58:41;;;;;;;176.23;161.85;;;19.70;97.60;;;;;;5057458;28;20057;-78
2022/06/26 02:01:12;;;;;;;185.25;169.88;;;19.70;97.40;;;;;;5040787;28;20521;-79
2022/06/26 02:03:39;;;;;;;184.57;169.32;;;19.70;97.40;;;;;;5057720;28;20079;-78
2022/06/26 02:06:10;;;;;;;172.65;158.27;;;19.70;97.50;;;;;;5057409;28;20053;-79
2022/06/26 02:08:37;;;;;;;171.80;156.95;;;19.70;97.60;;;;;;5075259;28;20052;-77
2022/06/26 02:13:52;;;;;;;170.60;155.65;;;19.70;97.70;;;;;;5039269;28;20503;-77
2022/06/26 02:16:26;;;;;;;166.05;151.88;;;19.70;97.70;;;;;;5040597;28;20711;-77
2022/06/26 02:18:55;;;;;;;166.50;152.25;;;19.60;97.70;;;;;;5056721;28;20052;-78
2022/06/26 02:21:27;;;;;;;162.85;149.23;;;19.60;97.60;;;;;;5040573;28;20044;-77
2022/06/26 02:23:59;;;;;;;169.02;155.00;;;19.60;97.70;;;;;;5057201;28;20049;-77
2022/06/26 02:26:26;;;;;;;166.85;152.70;;;19.60;97.70;;;;;;5040512;28;20049;-78
2022/06/26 02:28:59;;;;;;;163.27;149.27;;;19.60;97.70;;;;;;5056428;28;20063;-78
2022/06/26 02:31:29;;;;;;;165.90;151.35;;;19.60;97.70;;;;;;5057253;28;20049;-77
2022/06/26 02:33:56;;;;;;;162.18;147.98;;;19.60;97.70;;;;;;5041748;28;20049;-77
2022/06/26 02:36:23;;;;;;;157.88;144.05;;;19.60;97.70;;;;;;5119812;22;20148;-78
2022/06/26 02:38:50;;;;;;;158.80;145.05;;;19.50;97.60;;;;;;5079738;28;20501;-77
2022/06/26 02:41:17;;;;;;;163.40;149.32;;;19.50;97.60;;;;;;5080419;28;20102;-78
2022/06/26 02:43:44;;;;;;;162.07;148.18;;;19.60;97.60;;;;;;5097041;28;20501;-78
2022/06/26 02:46:12;;;;;;;163.95;149.75;;;19.60;97.50;;;;;;5097182;28;20055;-78
2022/06/26 02:48:40;;;;;;;163.75;149.55;;;19.60;97.50;;;;;;5096381;28;20052;-78
2022/06/26 02:51:08;;;;;;;163.98;149.88;;;19.60;97.50;;;;;;5080159;28;20048;-77
2022/06/26 02:53:35;;;;;;;162.80;148.77;;;19.60;97.50;;;;;;5096805;28;20041;-77
2022/06/26 02:56:01;;;;;;;160.68;146.82;;;19.50;97.40;;;;;;5080022;28;20079;-78
2022/06/26 02:58:29;;;;;;;162.40;148.70;;;19.50;97.50;;;;;;5096740;28;20052;-78
2022/06/26 03:00:57;;;;;;;159.48;145.75;;;19.60;97.50;;;;;;5096761;28;20043;-78
2022/06/26 03:03:26;;;;;;;161.30;147.30;;;19.50;97.40;;;;;;5080104;28;20086;-78
2022/06/26 03:05:54;;;;;;;162.48;148.57;;;19.50;97.50;;;;;;5080078;28;20151;-78
2022/06/26 03:08:26;;;;;;;166.15;151.70;;;19.50;97.50;;;;;;5096323;28;20055;-78
2022/06/26 03:10:53;;;;;;;164.95;150.35;;;19.40;97.50;;;;;;5079676;28;20082;-78
2022/06/26 03:13:20;;;;;;;164.00;149.80;;;19.40;97.50;;;;;;5079802;28;20091;-78
2022/06/26 03:15:47;;;;;;;162.27;148.27;;;19.30;97.50;;;;;;5115025;28;20050;-78
2022/06/26 03:18:17;;;;;;;167.60;152.85;;;19.30;97.60;;;;;;5096681;28;20048;-78
2022/06/26 03:20:46;;;;;;;167.77;153.07;;;19.20;97.60;;;;;;5094811;28;20148;-77
2022/06/26 03:23:13;;;;;;;163.27;149.25;;;19.20;97.70;;;;;;5079264;28;20139;-78
2022/06/26 03:25:40;;;;;;;165.75;151.25;;;19.20;97.80;;;;;;5096719;28;20131;-78
2022/06/26 03:28:07;;;;;;;164.25;149.95;;;19.20;97.80;;;;;;5114494;28;20199;-78
2022/06/26 03:30:41;;;;;;;162.48;148.15;;;19.10;97.70;;;;;;5114823;28;20082;-79
2022/06/26 03:33:08;;;;;;;163.25;149.18;;;19.10;97.70;;;;;;5096461;28;20527;-78
2022/06/26 03:35:36;;;;;;;155.27;141.80;;;19.10;97.80;;;;;;5096242;28;20537;-78
2022/06/26 03:38:06;;;;;;;156.15;142.70;;;19.10;97.80;;;;;;5095737;28;20580;-78
2022/06/26 03:40:34;;;;;;;154.07;140.95;;;19.10;97.70;;;;;;5078820;28;20048;-78
2022/06/26 03:43:02;;;;;;;155.27;142.05;;;19.00;97.70;;;;;;5079137;28;20051;-78
2022/06/26 03:45:42;;;;;;;154.13;140.60;;;19.00;97.80;;;;;;5079380;28;20052;-78
2022/06/26 03:48:09;;;;;;;157.23;143.40;;;18.90;97.80;;;;;;5079112;28;20052;-78
2022/06/26 03:50:36;;;;;;;152.68;139.40;;;18.90;97.80;;;;;;5079575;28;20125;-78
2022/06/26 03:53:05;;;;;;;155.68;142.27;;;18.90;97.80;;;;;;5079243;28;20159;-78
2022/06/26 03:55:32;;;;;;;154.43;141.32;;;18.90;97.80;;;;;;5078037;28;20055;-78
2022/06/26 03:57:59;;;;;;;156.95;143.40;;;18.80;97.90;;;;;;5079488;28;20052;-78
2022/06/26 04:00:27;;;;;;;157.65;143.85;;;18.80;97.90;;;;;;5096099;28;20399;-79
2022/06/26 04:02:54;;;;;;;157.93;144.32;;;18.80;97.90;;;;;;5079331;28;20056;-78
2022/06/26 04:05:27;;;;;;;162.15;148.18;;;18.70;97.90;;;;;;5096195;28;20617;-78
2022/06/26 04:07:57;;;;;;;165.77;151.38;;;18.80;98.00;;;;;;5095951;28;20043;-78
2022/06/26 04:10:32;;;;;;;158.10;144.60;;;18.70;98.00;;;;;;5096059;28;20063;-78
2022/06/26 04:13:00;;;;;;;162.82;148.85;;;18.70;98.00;;;;;;5079169;28;20523;-78
2022/06/26 04:15:28;;;;;;;164.02;150.13;;;18.60;98.00;;;;;;5096332;28;20044;-77
2022/06/26 04:17:55;;;;;;;160.60;146.90;;;18.60;98.00;;;;;;5095611;28;20043;-78
2022/06/26 04:20:23;;;;;;;164.27;150.00;;;18.60;98.00;;;;;;5079301;28;20070;-78
2022/06/26 04:22:58;;;;;;;163.35;149.40;;;18.60;98.10;;;;;;5078898;28;20055;-78
2022/06/26 04:25:28;;;;;;;158.52;144.93;;;18.60;98.10;;;;;;5095852;28;20048;-78
2022/06/26 04:27:57;;;;;;;161.15;147.23;;;18.60;98.10;;;;;;5095635;28;20048;-78
2022/06/26 04:30:24;;;;;;;155.25;141.65;;;18.60;98.20;;;;;;5094131;28;20977;-78
2022/06/26 04:32:51;;;;;;;159.55;145.75;;;18.50;98.20;;;;;;5079037;28;20048;-78
2022/06/26 04:35:19;;;;;;;158.70;145.00;;;18.50;98.30;;;;;;5078456;28;20125;-78
2022/06/26 04:37:46;;;;;;;161.40;147.20;;;18.50;98.30;;;;;;5078377;28;20067;-78
2022/06/26 04:40:15;;;;;;;156.90;143.00;;;18.50;98.30;;;;;;5095693;28;20052;-78
2022/06/26 04:42:43;;;;;;;163.95;149.63;;;18.50;98.40;;;;;;5078663;28;20044;-78
2022/06/26 04:45:12;;;;;;;161.80;148.18;;;18.50;98.40;;;;;;5079071;28;20055;-78
2022/06/26 04:47:42;;;;;;;162.18;148.07;;;18.50;98.50;;;;;;5078421;28;20105;-78
2022/06/26 04:50:13;;;;;;;157.52;143.95;;;18.50;98.50;;;;;;5078661;28;20052;-78
2022/06/26 04:52:46;;;;;;;155.48;141.88;;;18.50;98.60;;;;;;5079929;28;20048;-78
2022/06/26 04:55:15;;;;;;;151.95;139.13;;;18.40;98.60;;;;;;5098887;28;20055;-78
2022/06/26 04:57:46;;;;;;;154.70;141.32;;;18.40;98.60;;;;;;5098773;28;20270;-78
2022/06/26 05:00:16;;;;;;;154.55;141.18;;;18.40;98.60;;;;;;5117085;28;20410;-79
2022/06/26 05:03:18;;;;;;;149.65;136.65;;;18.50;98.60;;;;;;5099110;28;20040;-78
2022/06/26 05:05:57;;;;;;;148.27;135.43;;;18.40;98.50;;;;;;5099046;28;20106;-78
2022/06/26 05:08:37;;;;;;;153.95;140.75;;;18.40;98.60;;;;;;5098735;28;20059;-78
2022/06/26 05:11:05;;;;;;;152.52;139.57;;;18.40;98.60;;;;;;5099077;28;20048;-78
2022/06/26 05:13:35;;;;;;;157.65;144.05;;;18.40;98.70;;;;;;5081787;28;20048;-78
2022/06/26 05:16:23;;;;;;;151.77;138.57;;;18.50;98.80;;;;;;5097144;28;20074;-78
2022/06/26 05:18:50;;;;;;;149.90;136.75;;;18.50;99.00;;;;;;5081770;28;20102;-78
2022/06/26 05:21:20;;;;;;;152.10;138.68;;;18.50;98.80;;;;;;5097618;28;20056;-78
2022/06/26 05:23:47;;;;;;;155.27;141.48;;;18.50;98.80;;;;;;5088982;28;20077;-79
2022/06/26 05:26:14;;;;;;;160.93;146.45;;;18.50;98.80;;;;;;5088689;28;20048;-79
2022/06/26 05:28:41;;;;;;;159.35;145.02;;;18.50;98.80;;;;;;5086107;28;20048;-79
2022/06/26 05:31:08;;;;;;;158.93;144.73;;;18.40;98.80;;;;;;5070480;28;20560;-79
2022/06/26 05:33:40;;;;;;;156.80;142.45;;;18.50;98.90;;;;;;5088450;28;20048;-79
2022/06/26 05:36:10;;;;;;;159.82;145.43;;;18.50;98.90;;;;;;5065710;28;20044;-79
2022/06/26 05:38:39;;;;;;;158.70;144.40;;;18.50;98.80;;;;;;5092944;28;20078;-80
2022/06/26 05:41:06;;;;;;;158.45;144.05;;;18.50;98.90;;;;;;5070624;28;20044;-79
2022/06/26 05:43:36;;;;;;;158.68;144.57;;;18.50;98.90;;;;;;5066405;28;20177;-79
2022/06/26 05:46:04;;;;;;;164.27;149.80;;;18.50;98.90;;;;;;5084699;28;20542;-78
2022/06/26 05:48:51;;;;;;;165.40;150.90;;;18.40;98.80;;;;;;5090064;28;20044;-79
2022/06/26 05:51:53;;;;;;;161.23;146.68;;;18.50;98.90;;;;;;4992538;28;20501;-78
2022/06/26 05:54:26;;;;;;;161.93;147.32;;;18.50;98.80;;;;;;5052253;28;20051;-78
2022/06/26 05:57:28;;;;;;;161.73;147.35;;;18.50;98.80;;;;;;5060987;28;20131;-78
2022/06/26 06:00:17;;;;;;;165.65;150.68;;;18.50;98.80;;;;;;5098856;28;20048;-78
2022/06/26 06:02:44;;;;;;;163.32;148.77;;;18.50;98.80;;;;;;5089189;28;20044;-79
2022/06/26 06:05:14;;;;;;;164.20;149.80;;;18.40;98.70;;;;;;5068657;28;20135;-78
2022/06/26 06:07:42;;;;;;;169.77;154.77;;;18.50;98.80;;;;;;5068526;28;20048;-79
2022/06/26 06:10:10;;;;;;;162.48;147.48;;;18.50;98.80;;;;;;5067281;28;20915;-79
2022/06/26 06:12:38;;;;;;;170.57;155.93;;;18.50;98.90;;;;;;5067463;28;20135;-79
2022/06/26 06:15:08;;;;;;;168.25;153.45;;;18.50;98.90;;;;;;5078625;28;20512;-78
2022/06/26 06:17:40;;;;;;;171.38;156.88;;;18.50;99.00;;;;;;5086416;28;20055;-78
2022/06/26 06:20:11;;;;;;;177.23;162.13;;;18.50;99.00;;;;;;5066317;28;20135;-79
2022/06/26 06:22:41;;;;;;;174.45;159.68;;;18.50;99.00;;;;;;5083709;28;20497;-78
2022/06/26 06:25:10;;;;;;;177.98;162.98;;;18.50;99.10;;;;;;5085271;28;20118;-78
2022/06/26 06:27:38;;;;;;;174.88;160.25;;;18.50;99.10;;;;;;5067529;28;20056;-78
2022/06/26 06:30:10;;;;;;;169.43;154.68;;;18.50;99.00;;;;;;5064319;28;20140;-78
2022/06/26 06:32:38;;;;;;;172.73;157.88;;;18.50;99.00;;;;;;5064524;28;20148;-78
2022/06/26 06:35:12;;;;;;;178.32;163.32;;;18.50;99.00;;;;;;5064477;28;20052;-78
2022/06/26 06:37:41;;;;;;;179.68;163.52;;;18.60;99.00;;;;;;5082767;28;20912;-79
2022/06/26 06:40:10;;;;;;;180.38;165.18;;;18.60;98.90;;;;;;5067262;28;20135;-78
2022/06/26 06:42:40;;;;;;;176.48;161.38;;;18.60;98.80;;;;;;5066627;28;20055;-79
2022/06/26 06:45:13;;;;;;;178.32;163.13;;;18.60;98.80;;;;;;5063006;28;20120;-79
2022/06/26 06:48:02;;;;;;;178.07;162.70;;;18.60;98.80;;;;;;5104174;28;20049;-78
2022/06/26 06:50:39;;;;;;;176.05;160.60;;;18.60;98.70;;;;;;5085084;28;20105;-78
2022/06/26 06:53:08;;;;;;;180.20;164.73;;;18.70;98.60;;;;;;5103266;28;20102;-81
2022/06/26 06:55:35;;;;;;;164.82;150.93;;;18.60;98.60;;;;;;5069820;28;20059;-78
2022/06/26 06:58:02;;;;;;;170.80;156.43;;;18.60;98.70;;;;;;5073865;28;20045;-79
2022/06/26 07:00:30;;;;;;;166.20;152.52;;;18.70;98.80;;;;;;5095401;28;20048;-78
2022/06/26 07:03:00;;;;;;;165.38;151.40;;;18.70;98.90;;;;;;5080202;28;20058;-78
2022/06/26 07:05:27;;;;;;;168.10;153.90;;;18.70;99.10;;;;;;5085188;28;20139;-79
2022/06/26 07:07:54;;;;;;;167.95;153.95;;;18.70;99.00;;;;;;5064906;28;20052;-79
2022/06/26 07:10:22;;;;;;;170.38;155.77;;;18.80;98.90;;;;;;5081984;28;20561;-78
2022/06/26 07:12:54;;;;;;;174.73;159.52;;;18.80;98.80;;;;;;5110631;28;20048;-77
2022/06/26 07:15:22;;;;;;;177.50;162.25;;;18.80;98.80;;;;;;5076055;28;20557;-79
2022/06/26 07:17:49;;;;;;;178.57;163.70;;;18.80;98.70;;;;;;5078278;28;20605;-81
2022/06/26 07:20:16;;;;;;;172.95;157.95;;;18.80;98.50;;;;;;5076009;28;20144;-81
2022/06/26 07:22:43;;;;;;;173.00;158.25;;;18.80;98.70;;;;;;5065936;28;20121;-81
2022/06/26 07:25:16;;;;;;;181.35;165.77;;;18.80;98.80;;;;;;5059849;28;20127;-81
2022/06/26 07:27:47;;;;;;;179.57;164.55;;;18.90;98.80;;;;;;5059139;28;20132;-82
2022/06/26 07:30:15;;;;;;;180.00;164.85;;;18.90;98.60;;;;;;5081558;28;20068;-81
2022/06/26 07:33:02;;;;;;;175.05;160.05;;;18.90;98.60;;;;;;5079394;28;20131;-81
2022/06/26 07:35:31;;;;;;;183.25;167.30;;;18.90;98.30;;;;;;5078092;28;20471;-81
2022/06/26 07:37:58;;;;;;;181.82;166.40;;;18.90;98.20;;;;;;5078494;28;20052;-82
2022/06/26 07:40:26;;;;;;;182.85;167.43;;;18.90;98.00;;;;;;5082275;28;20052;-81
2022/06/26 07:42:56;;;;;;;180.85;165.35;;;18.90;98.10;;;;;;5075496;28;20080;-82
2022/06/26 07:45:25;;;;;;;178.63;163.27;;;19.00;98.10;;;;;;5064284;28;20098;-83
2022/06/26 07:48:03;;;;;;;172.90;158.18;;;19.00;98.30;;;;;;5071965;28;20047;-82
2022/06/26 07:50:33;;;;;;;173.02;158.05;;;19.00;98.10;;;;;;5072640;28;20059;-84
2022/06/26 07:53:00;;;;;;;174.68;159.20;;;19.10;98.10;;;;;;5071287;28;20076;-85
2022/06/26 07:55:28;;;;;;;167.27;152.82;;;19.10;98.10;;;;;;5080710;28;20560;-80
2022/06/26 07:57:56;;;;;;;166.27;151.88;;;19.10;97.90;;;;;;5068511;28;20044;-83
2022/06/26 08:00:23;;;;;;;164.80;150.55;;;19.20;98.10;;;;;;5068684;27;20134;-84
2022/06/26 08:02:51;;;;;;;166.23;151.52;;;19.20;97.80;;;;;;5075630;28;20520;-82
2022/06/26 08:05:18;;;;;;;161.65;147.40;;;19.20;97.80;;;;;;5070641;27;20573;-79
2022/06/26 08:07:46;;;;;;;160.15;146.07;;;19.30;97.70;;;;;;5068594;28;20490;-85
2022/06/26 08:10:13;;;;;;;166.52;152.10;;;19.30;97.40;;;;;;5063922;28;20358;-84
2022/06/26 08:12:40;;;;;;;157.23;142.82;;;19.30;97.30;;;;;;5092231;28;20123;-85
2022/06/26 08:15:10;;;;;;;159.85;145.57;;;19.40;97.20;;;;;;5067736;28;20119;-84
2022/06/26 08:17:37;;;;;;;168.18;153.20;;;19.40;96.90;;;;;;5085004;28;20055;-84
2022/06/26 08:20:04;;;;;;;165.52;151.32;;;19.40;96.60;;;;;;5076389;28;20078;-85
2022/06/26 08:22:31;;;;;;;166.90;152.60;;;19.40;96.50;;;;;;5082113;27;20142;-83
2022/06/26 08:24:58;;;;;;;165.38;151.02;;;19.40;96.30;;;;;;5076752;28;20133;-82
2022/06/26 08:27:25;;;;;;;169.02;154.98;;;19.40;96.40;;;;;;5070342;27;20053;-83
2022/06/26 08:29:52;;;;;;;163.07;148.85;;;19.40;96.50;;;;;;5090447;27;20101;-83
2022/06/26 08:32:20;;;;;;;159.98;146.30;;;19.50;96.50;;;;;;5071183;27;20139;-83
2022/06/26 08:34:47;;;;;;;159.65;146.00;;;19.50;95.80;;;;;;5065466;28;20129;-82
2022/06/26 08:37:14;;;;;;;160.02;145.98;;;19.50;95.20;;;;;;5068504;28;20108;-83
2022/06/26 08:39:43;;;;;;;162.30;148.13;;;19.60;95.30;;;;;;5084207;28;20502;-83
2022/06/26 08:42:11;;;;;;;166.52;152.38;;;19.60;95.40;;;;;;5098450;27;20052;-83
2022/06/26 08:44:45;;;;;;;162.80;148.40;;;19.60;95.80;;;;;;5080932;28;20052;-84
2022/06/26 08:47:13;;;;;;;161.35;147.60;;;19.70;95.40;;;;;;5102523;28;20044;-83
2022/06/26 08:49:42;;;;;;;163.75;150.25;;;19.70;95.30;;;;;;5075162;27;20147;-81
2022/06/26 08:52:10;;;;;;;163.18;149.65;;;19.80;95.20;;;;;;5067909;28;20053;-83
2022/06/26 08:54:38;;;;;;;169.55;155.10;;;19.80;94.60;;;;;;5081340;28;20115;-83
2022/06/26 08:57:05;;;;;;;166.68;152.57;;;19.80;94.40;;;;;;5079126;28;20132;-81
2022/06/26 08:59:32;;;;;;;166.55;152.75;;;19.90;94.50;;;;;;5071571;28;20106;-81
2022/06/26 09:01:59;;;;;;;168.77;155.10;;;19.80;94.40;;;;;;5087093;28;20052;-81
2022/06/26 09:04:26;;;;;;;167.95;154.32;;;19.90;94.20;;;;;;5089405;27;20102;-81
2022/06/26 09:06:55;;;;;;;166.50;153.20;;;19.90;93.80;;;;;;5077089;28;20127;-81
2022/06/26 09:09:23;;;;;;;170.98;157.18;;;20.00;93.60;;;;;;5083667;28;20135;-81
2022/06/26 09:11:53;;;;;;;168.95;155.50;;;20.00;93.60;;;;;;5066606;28;20548;-76
2022/06/26 09:14:21;;;;;;;160.27;147.13;;;20.00;93.60;;;;;;5088277;28;20110;-76
2022/06/26 09:16:50;;;;;;;163.90;150.55;;;20.00;93.70;;;;;;5079959;28;20143;-79
2022/06/26 09:19:20;;;;;;;163.02;149.57;;;20.10;92.80;;;;;;5087646;28;20056;-84
2022/06/26 09:21:48;;;;;;;171.18;156.68;;;20.20;93.00;;;;;;5103086;28;20773;-84
2022/06/26 09:24:18;;;;;;;166.68;152.88;;;20.20;93.00;;;;;;5093890;28;20148;-83
2022/06/26 09:26:46;;;;;;;170.00;155.43;;;20.20;92.90;;;;;;5111188;28;20525;-81
2022/06/26 09:29:14;;;;;;;161.77;148.30;;;20.30;93.30;;;;;;5103391;28;20140;-80
2022/06/26 09:31:42;;;;;;;166.65;152.98;;;20.30;93.30;;;;;;5067564;28;20048;-81
2022/06/26 09:34:21;;;;;;;168.95;155.10;;;20.30;92.20;;;;;;5072756;28;20044;-80
2022/06/26 09:36:56;;;;;;;165.00;151.40;;;20.40;92.20;;;;;;5080701;28;20056;-81
2022/06/26 09:39:24;;;;;;;166.60;152.80;;;20.40;91.70;;;;;;5065500;28;20504;-80
2022/06/26 09:41:51;;;;;;;165.35;151.45;;;20.40;91.40;;;;;;5081698;28;20055;-80
2022/06/26 09:44:19;;;;;;;162.13;148.25;;;20.50;90.70;;;;;;5070480;28;20161;-79
2022/06/26 09:46:46;;;;;;;164.18;150.15;;;20.40;90.70;;;;;;5094296;28;20056;-80
2022/06/26 09:49:13;;;;;;;158.63;145.43;;;20.50;90.20;;;;;;5085632;28;20049;-80
2022/06/26 09:51:40;;;;;;;183.55;168.27;;;20.50;90.80;;;;;;5087808;28;20532;-81
2022/06/26 09:54:07;;;;;;;166.40;152.25;;;20.50;90.80;;;;;;5087556;28;20052;-81
2022/06/26 09:56:36;;;;;;;164.88;151.10;;;20.50;91.00;;;;;;5105445;28;20071;-81
2022/06/26 09:59:03;;;;;;;163.43;149.82;;;20.50;90.60;;;;;;5086889;28;20049;-80
2022/06/26 10:07:02;;;;;;;164.00;150.32;;;20.50;90.00;;;;;;5094719;28;20051;-83
2022/06/26 10:09:30;;;;;;;164.73;151.13;;;20.50;90.10;;;;;;5063093;28;20484;-83
2022/06/26 10:12:01;;;;;;;176.75;162.43;;;20.50;90.10;;;;;;5099302;28;20048;-83
2022/06/26 10:14:32;;;;;;;187.57;173.25;;;20.60;90.00;;;;;;5077593;28;20056;-83
2022/06/26 10:17:34;;;;;;;176.00;161.90;;;20.50;90.10;;;;;;5077116;28;20055;-84
2022/06/26 10:20:05;;;;;;;162.27;148.57;;;20.60;90.00;;;;;;5077399;28;20049;-84
2022/06/26 10:22:39;;;;;;;174.88;160.02;;;20.60;90.00;;;;;;5061249;28;20048;-83
2022/06/26 10:25:07;;;;;;;164.48;150.48;;;20.70;89.90;;;;;;5070941;28;20048;-82
2022/06/26 10:27:37;;;;;;;166.00;152.35;;;20.70;90.00;;;;;;5095890;28;20044;-84
2022/06/26 10:30:08;;;;;;;173.52;159.02;;;20.70;89.30;;;;;;5082721;28;20079;-83
2022/06/26 10:32:35;;;;;;;171.50;157.40;;;20.70;89.50;;;;;;5075479;28;20148;-83
2022/06/26 10:35:03;;;;;;;179.88;165.50;;;20.70;88.20;;;;;;5080975;28;20144;-80
2022/06/26 10:37:41;;;;;;;174.90;160.55;;;20.70;88.30;;;;;;5083388;28;20048;-79
2022/06/26 10:40:14;;;;;;;166.52;152.80;;;20.80;87.50;;;;;;5086425;28;20055;-80
2022/06/26 10:42:53;;;;;;;170.38;156.13;;;20.80;88.30;;;;;;5080291;28;20055;-80
2022/06/26 10:45:23;;;;;;;168.55;154.52;;;20.80;88.40;;;;;;5078253;28;20048;-80
2022/06/26 10:47:52;;;;;;;167.55;153.90;;;20.80;87.50;;;;;;5076317;28;20072;-81
2022/06/26 10:50:31;;;;;;;168.65;155.15;;;20.90;86.00;;;;;;5094738;28;20545;-82
2022/06/26 10:53:18;;;;;;;160.65;147.68;;;20.90;84.80;;;;;;5061151;28;20139;-79
2022/06/26 10:55:47;;;;;;;163.77;150.77;;;20.90;84.30;;;;;;5081142;28;20562;-80
2022/06/26 10:58:20;;;;;;;166.00;152.70;;;20.90;84.50;;;;;;5063159;28;20053;-80
2022/06/26 11:00:48;;;;;;;161.88;148.95;;;20.90;85.80;;;;;;5084994;28;20053;-81
2022/06/26 11:03:16;;;;;;;162.60;149.20;;;21.00;85.60;;;;;;5070319;28;20068;-80
2022/06/26 11:05:58;;;;;;;164.50;151.50;;;21.00;86.10;;;;;;5075987;28;20110;-79
2022/06/26 11:08:30;;;;;;;163.40;150.35;;;21.00;85.80;;;;;;5084137;28;20044;-79
2022/06/26 11:11:05;;;;;;;167.68;154.48;;;21.10;85.40;;;;;;5093032;28;20509;-79
2022/06/26 11:13:35;;;;;;;160.13;147.27;;;21.10;87.10;;;;;;5105671;28;20048;-80
2022/06/26 11:16:03;;;;;;;160.38;147.15;;;21.10;88.30;;;;;;5115310;28;20052;-79
2022/06/26 11:18:35;;;;;;;161.52;148.43;;;21.20;87.50;;;;;;5105472;28;20056;-78
2022/06/26 11:21:02;;;;;;;160.85;147.88;;;21.20;86.80;;;;;;5096407;28;20063;-80
2022/06/26 11:23:31;;;;;;;163.98;150.82;;;21.30;85.90;;;;;;5100752;27;20590;-80
2022/06/26 11:26:00;;;;;;;169.32;155.35;;;21.30;86.80;;;;;;5090578;28;20048;-79
2022/06/26 11:28:29;;;;;;;165.18;151.55;;;21.30;85.90;;;;;;5081315;28;20140;-80
2022/06/26 11:30:59;;;;;;;168.23;154.70;;;21.40;86.40;;;;;;5107638;28;20057;-80
2022/06/26 11:33:27;;;;;;;171.35;157.80;;;21.40;84.00;;;;;;5084453;28;20048;-81
2022/06/26 11:35:55;;;;;;;166.40;152.80;;;21.50;84.00;;;;;;5096239;28;20943;-81
2022/06/26 11:38:23;;;;;;;164.38;150.98;;;21.50;83.20;;;;;;5067698;28;20092;-81
2022/06/26 11:40:50;;;;;;;163.90;150.38;;;21.50;84.00;;;;;;5077397;28;20076;-80
2022/06/26 11:43:19;;;;;;;166.35;152.85;;;21.50;84.30;;;;;;5105566;28;20133;-81
2022/06/26 11:45:46;;;;;;;161.85;148.65;;;21.60;84.70;;;;;;5069347;28;20045;-79
2022/06/26 11:48:17;;;;;;;165.93;152.60;;;21.60;84.40;;;;;;5102375;28;20206;-78
2022/06/26 11:50:46;;;;;;;167.65;154.23;;;21.60;85.70;;;;;;5102083;28;20101;-79
2022/06/26 11:53:19;;;;;;;163.32;150.18;;;21.70;84.80;;;;;;5100826;28;20080;-80
2022/06/26 11:55:49;;;;;;;162.35;149.00;;;21.70;85.00;;;;;;5066138;28;20060;-81
2022/06/26 11:58:16;;;;;;;164.63;151.43;;;21.70;85.00;;;;;;5075316;28;20056;-84
2022/06/26 12:00:44;;;;;;;164.07;150.95;;;21.70;85.30;;;;;;5075748;28;20055;-82
2022/06/26 12:03:14;;;;;;;162.70;149.40;;;21.80;84.40;;;;;;5074200;28;20060;-82
2022/06/26 12:05:45;;;;;;;166.35;152.98;;;21.80;85.10;;;;;;5094160;28;20052;-81
2022/06/26 12:08:18;;;;;;;163.13;150.13;;;21.80;85.00;;;;;;5087798;28;20067;-81
2022/06/26 12:10:49;;;;;;;167.27;153.82;;;21.80;85.40;;;;;;5077231;28;20135;-80
2022/06/26 12:13:25;;;;;;;164.85;151.32;;;21.80;85.80;;;;;;5094236;28;20052;-81
2022/06/26 12:15:52;;;;;;;161.27;148.07;;;21.80;84.80;;;;;;5112949;28;20139;-80
2022/06/26 12:18:21;;;;;;;159.02;145.73;;;21.80;84.10;;;;;;5085361;28;20403;-81
2022/06/26 12:20:51;;;;;;;162.20;148.93;;;21.80;83.10;;;;;;5082658;28;20052;-81
2022/06/26 12:23:19;;;;;;;163.18;150.20;;;21.80;83.80;;;;;;5058032;28;20052;-80
2022/06/26 12:25:49;;;;;;;166.20;153.00;;;21.80;82.90;;;;;;5093980;28;20142;-82
2022/06/26 12:28:23;;;;;;;163.20;150.23;;;21.80;82.70;;;;;;5084007;28;20049;-82